Tiempo atmosférico en la estación meteorológica de Teruel, Teruel (900 m.)



Fecha
DESCASC
Temp. máxima en grados centígrados (hora)
DESCASC
Temp. mínima en grados centígrados (hora)
DESCASC
Temp. media en grados centígrados
DESCASC
Racha de viento máxima en m/sg (hora)
DESCASC
Velocidad máxima media en intervalos de 10 minutos(hora)
DESCASC
Precipitaciones diarias en mm
DESCASC
Precipitaciones de 00:00 a 06:00 en mm
DESCASC
Precipitaciones de 06:00 a 12:00 en mm
DESCASC
Precipitaciones de 12:00 a 18:00 en mm
DESCASC
Precipitaciones de 18:00 a 24:00 en mm
DESCASC
09-01-2021 -0.7 (11:20) -4 (-00:0) -2.3 6.11 (05:00) 3.33 (05:00) 19.8 10 5.2 4.2 0.4
08-01-2021 -0.3 (13:10) -2.8 (-00:0) -1.5 5 (16:00) 2.78 (16:10) 10.8 0 1.2 3.4 6.2
07-01-2021 0.2 (12:10) -2.1 (-00:0) -0.9 6.11 (14:50) 3.33 (14:30) 3.6 0 0 2 1.6
25-01-2021 14.4 (15:00) 0.1 (00:00) 7.2 11.94 (18:00) 5.56 (12:50) 1.6 0 0 0.6 1
19-01-2021 8.3 (16:50) -9.7 (-00:0) -0.7 6.11 (17:30) 3.33 (17:30) 0 0 0 0 0
14-01-2021 0.9 (15:10) -16.4 (09:00) -7.7 3.33 (23:40) 1.67 (13:30) 0 0 0 0 0
15-01-2021 5.9 (15:30) -5.3 (-00:0) 0.3 10.28 (23:10) 4.72 (23:00) 0 0 0 0 0
16-01-2021 6.3 (16:10) -7.1 (-00:0) -0.4 11.11 (01:30) 4.72 (01:30) 0 0 0 0 0
17-01-2021 6.9 (15:00) -11.5 (-00:0) -2.3 3.33 (17:00) 2.5 (02:30) 0 0 0 0 0
18-01-2021 8.8 (15:10) -6.5 (-00:0) 1.2 3.61 (16:50) 1.94 (16:40) 0 0 0 0 0
12-01-2021 -2.2 (14:40) -21 (-00:0) -11.6 3.06 (18:50) 2.22 (18:50) 0 0 0 0 0
20-01-2021 6.8 (13:00) -6.8 (-00:0) 0 9.44 (13:50) 5.28 (14:20) 0 0 0 0 0
21-01-2021 11.5 (14:00) 1.4 (00:00) 6.4 12.22 (13:50) 7.5 (13:30) 0 0 0 0 0
22-01-2021 10.2 (05:50) 3.9 (00:00) 7 20.28 (13:30) 10 (11:20) 2.4 0 2.4 0 0
23-01-2021 8.4 (23:20) 1.5 (00:00) 4.9 10.83 (15:10) 6.94 (15:00) 0 0 0 0 0
24-01-2021 12.2 (13:50) 0.8 (00:00) 6.5 11.67 (10:20) 5.83 (10:20) 0 0 0 0 0
26-01-2021 12.1 (17:00) 0.5 (00:00) 6.3 3.61 (01:00) 2.22 (01:20) 0 0 0 0 0
13-01-2021 2.7 (14:30) -15.5 (-00:0) -6.4 3.33 (18:20) 2.22 (18:20) 0 0 0 0 0
28-12-2020 7.8 (15:10) -0.3 (00:00) 3.8 18.61 (06:50) 7.5 (06:50) 4 0 4 0 0
11-01-2021 -0.1 (15:00) -16.1 (-00:0) -8.1 4.72 (09:30) 2.5 (00:30) 0 0 0 0 0
10-01-2021 1.9 (14:00) -4.2 (00:20) -1.1 6.67 (15:40) 3.61 (15:20) 0.2 0.2 0 0 0
06-01-2021 4.6 (15:30) -8.8 (-00:0) -2.1 4.17 (15:10) 2.22 (15:10) 0 0 0 0 0
05-01-2021 4 (14:00) -8.9 (-00:0) -2.4 5.28 (14:20) 2.5 (15:20) 0 0 0 0 0
04-01-2021 5.3 (13:40) -4.4 (-00:0) 0.5 7.78 (16:30) 3.61 (15:10) 0.6 0 0.4 0 0.2
03-01-2021 5.4 (15:10) -5.9 (-00:0) -0.3 10.83 (16:00) 4.72 (14:50) 0 0 0 0 0
02-01-2021 2 (16:00) -4.4 (-00:0) -1.2 13.06 (14:20) 5.83 (14:20) 0 0 0 0 0
01-01-2021 4.8 (15:00) -0.5 (-00:0) 2.2 9.17 (15:20) 5 (15:20) 2.8 0.8 1.8 0 0.2
31-12-2020 9 (13:50) -6.2 (-00:0) 1.4 10 (15:30) 5.28 (15:30) 0 0 0 0 0
30-12-2020 6.8 (15:40) -2.7 (-00:0) 2.1 8.89 (14:30) 3.89 (14:30) 0 0 0 0 0
29-12-2020 6.7 (12:10) -1.2 (-00:0) 2.7 9.17 (15:20) 4.17 (15:00) 0 0 0 0 0

Gráficas

Temp. máximas Temp. mínimas Temp. medias Precipitaciones Rachas de viento máximas Velocidades máximas media en intervalos de 10 minutos

Datos horarios

Fecha y hora oficial Temperatura (ºC) Velocidad del viento (km/h) Dirección del viento Racha (km/h) Dirección de racha Precipitación (mm) Presión (hPa) Tendencia (hPa) Humedad (%)
2021-01-26 23:00:00 8.8 3 Este 5 Este 0 919.4 -- 89
2021-01-26 22:00:00 9 2 Este 4 Sudeste 0 919.8 -- 86
2021-01-26 21:00:00 9.1 2 Nordeste 5 Nordeste 0 919.7 -- 86
2021-01-26 20:00:00 10 3 Oeste 5 Norte 0 919.4 -- 81
2021-01-26 19:00:00 10.3 2 Noroeste 3 Sur 0 919 -- 80
2021-01-26 18:00:00 11.3 0 Calma 5 Sudoeste 0 918.4 -- 73
2021-01-26 17:00:00 12.1 3 Sudoeste 6 Oeste 0 918.4 -- 70
2021-01-26 16:00:00 12 4 Sur 7 Sur 0 918.4 -- 70
2021-01-26 15:00:00 10.8 3 Oeste 6 Sudoeste 0 918.3 -- 73
2021-01-26 14:00:00 9.2 2 Nordeste 5 Noroeste 0 918.7 -- 76
2021-01-26 13:00:00 6.5 2 Nordeste 9 Sudoeste 0 919.4 -- 88
2021-01-26 12:00:00 4.7 4 Oeste 10 Oeste 0 920 -- 93
2021-01-26 11:00:00 2.1 2 Noroeste 7 Nordeste 0 919.5 -- 98
2021-01-26 10:00:00 0.6 5 Nordeste 9 Norte 0 919.3 -- 99
2021-01-26 09:00:00 1.2 4 Nordeste 8 Nordeste 0 918.3 -- 98
2021-01-26 08:00:00 1.6 0 Calma 5 Sur 0 917.8 -- 99
2021-01-26 07:00:00 1.8 0 Calma 5 Nordeste 0 917.7 -- 99
2021-01-26 06:00:00 1.7 4 Norte 10 Norte 0 917.1 -- 99
2021-01-26 05:00:00 2.1 4 Norte 7 Norte 0 916.6 -- 98
2021-01-26 04:00:00 1.5 3 Sudeste 4 Este 0 916.3 -- 95
2021-01-26 03:00:00 2.4 0 Calma 9 Noroeste 0 915.5 -- 95
2021-01-26 02:00:00 3.9 6 Oeste 12 Oeste 0 915 -- 96
2021-01-26 01:00:00 4.3 6 Oeste 13 Oeste 0 914.8 -- 93
2021-01-26 00:00:00 5.6 5 Oeste 13 Norte 0 914.2 -- 89
2021-01-25 23:00:00 6.6 5 Norte 18 Noroeste 0 913.4 -- 83
2021-01-25 22:00:00 6.7 7 Norte 19 Nordeste 0 912.5 -- 86
2021-01-25 21:00:00 7.6 9 Noroeste 19 Noroeste 0 911.6 -- 83
2021-01-25 20:00:00 7.9 6 Norte 13 Norte 0 910.4 -- 86
2021-01-25 19:00:00 8.3 5 Norte 28 Noroeste 1 909.4 -- 87
2021-01-25 18:00:00 10.8 14 Noroeste 43 Norte 0.6 908 -- 80
2021-01-25 17:00:00 13.5 14 Noroeste 33 Noroeste 0 906.4 -- 63
2021-01-25 16:00:00 13.9 15 Oeste 40 Oeste 0 905.7 -- 60
2021-01-25 15:00:00 14.4 11 Oeste 34 Sudoeste 0 905.5 -- 57
2021-01-25 14:00:00 14 12 Oeste 37 Oeste 0 906 -- 60
2021-01-25 13:00:00 13.4 18 Sudoeste 41 Oeste 0 906.6 -- 61
2021-01-25 12:00:00 12.1 12 Sudoeste 23 Oeste 0 907.3 -- 69
2021-01-25 11:00:00 9.7 13 Sudoeste 22 Sudoeste 0 907.3 -- 80
2021-01-25 10:00:00 8.6 9 Sur 27 Sur 0 907.1 -- 82
2021-01-25 09:00:00 7 15 Sur 29 Sur 0 907.3 -- 86
2021-01-25 08:00:00 6 13 Sur 24 Sur 0 907.2 -- 89
2021-01-25 07:00:00 2.3 3 Este 7 Nordeste 0 907.3 -- 93
2021-01-25 06:00:00 1.2 3 Nordeste 6 Nordeste 0 907.7 -- 92
2021-01-25 05:00:00 0.6 3 Nordeste 9 Sudoeste 0 908.2 -- 93
2021-01-25 04:00:00 0.4 2 Norte 7 Nordeste 0 909 -- 91
2021-01-25 03:00:00 0.4 5 Norte 8 Nordeste 0 909.6 -- 91
2021-01-25 02:00:00 0.3 4 Oeste 7 Sudoeste 0 909.9 -- 89
2021-01-25 01:00:00 0.5 4 Oeste 8 Noroeste 0 910.2 -- 90
2021-01-25 00:00:00 0.8 5 Norte 9 Norte 0 910.4 -- 88
2021-01-24 23:00:00 1.3 4 Nordeste 10 Nordeste 0 910.6 -- 86
2021-01-24 22:00:00 2.5 0 Calma 5 Noroeste 0 910.4 -- 81
2021-01-24 21:00:00 3.5 3 Nordeste 5 Nordeste 0 910.3 -- 76
2021-01-24 20:00:00 5.5 3 Nordeste 14 Norte 0 909.8 -- 68
2021-01-24 19:00:00 6.6 6 Norte 15 Oeste 0 909.3 -- 63
2021-01-24 18:00:00 9.3 6 Oeste 22 Oeste 0 909 -- 52
2021-01-24 17:00:00 9.8 10 Oeste 31 Oeste 0 908.8 -- 48
2021-01-24 16:00:00 12.1 13 Noroeste 33 Oeste 0 908.6 -- 41
2021-01-24 15:00:00 11.7 15 Oeste 35 Oeste 0 908.6 -- 43
2021-01-24 14:00:00 11.3 15 Oeste 32 Oeste 0 908.8 -- 43
2021-01-24 13:00:00 10.2 11 Noroeste 31 Oeste 0 909.5 -- 47
2021-01-24 12:00:00 9.7 14 Noroeste 41 Noroeste 0 909.2 -- 52
2021-01-24 11:00:00 8.9 16 Noroeste 42 Noroeste 0 908.7 -- 66
2021-01-24 10:00:00 8.4 13 Noroeste 32 Noroeste 0 907.8 -- 64
2021-01-24 09:00:00 6.9 9 Noroeste 34 Oeste 0 906.8 -- 65
2021-01-24 08:00:00 7.6 13 Noroeste 33 Noroeste 0 905.8 -- 62
2021-01-24 07:00:00 8.1 12 Oeste 32 Oeste 0 904.9 -- 58
2021-01-24 06:00:00 7.9 11 Noroeste 29 Noroeste 0 904.5 -- 61
2021-01-24 05:00:00 8 8 Norte 22 Noroeste 0 903.5 -- 64
2021-01-24 04:00:00 8.9 11 Norte 30 Noroeste 0 903.2 -- 63
2021-01-24 03:00:00 10.2 5 Norte 26 Sur 0 902.6 -- 70
2021-01-24 02:00:00 10.3 4 Noroeste 15 Oeste 0 901.8 -- 73
2021-01-24 01:00:00 9.2 4 Sudoeste 13 Sudeste 0 901.6 -- 78
2021-01-24 00:00:00 8.4 5 Sudeste 24 Sudeste 0 901.9 -- 82
2021-01-23 23:00:00 8.1 11 Sudeste 23 Sur 0 902.6 -- 81
2021-01-23 22:00:00 7.5 12 Sur 27 Sur 0 903.4 -- 81
2021-01-23 21:00:00 7.1 16 Sur 29 Sur 0 904 -- 81
2021-01-23 20:00:00 7 18 Sudoeste 33 Sudoeste 0 904.9 -- 79
2021-01-23 19:00:00 5.7 13 Sur 26 Sur 0 905.6 -- 83
2021-01-23 18:00:00 6.5 14 Sudoeste 32 Sur 0 906 -- 75
2021-01-23 17:00:00 7.8 14 Sudoeste 32 Sur 0 906.9 -- 68
2021-01-23 16:00:00 6.9 13 Sudoeste 39 Sudoeste 0 907.6 -- 70
2021-01-23 15:00:00 7.7 25 Sudoeste 39 Oeste 0 907.8 -- 61
2021-01-23 14:00:00 7.6 13 Sudoeste 33 Oeste 0 908.8 -- 58
2021-01-23 13:00:00 7.5 11 Oeste 30 Sudoeste 0 909.8 -- 59
2021-01-23 12:00:00 7.7 17 Sudoeste 29 Sudoeste 0 910.1 -- 61
2021-01-23 11:00:00 6.7 17 Sudoeste 36 Oeste 0 910 -- 61
2021-01-23 10:00:00 4.4 4 Sudeste 12 Sur 0 909.9 -- 69
2021-01-23 09:00:00 1.6 4 Sudeste 8 Sur 0 910 -- 79
2021-01-23 08:00:00 2.4 5 Sudeste 10 Sur 0 910 -- 74
2021-01-23 07:00:00 3 4 Este 13 Noroeste 0 910.2 -- 71
2021-01-23 06:00:00 3.1 3 Este 10 Este 0 910 -- 72
2021-01-23 05:00:00 2.9 3 Este 14 Sudoeste 0 909.9 -- 70
2021-01-23 04:00:00 2.6 5 Oeste 24 Oeste 0 910.5 -- 73
2021-01-23 03:00:00 2 2 Sudoeste 8 Oeste 0 910.9 -- 77
2021-01-23 02:00:00 2.1 4 Sur 13 Sudeste 0 910.5 -- 78
2021-01-23 01:00:00 2.4 4 Sudeste 11 Sudoeste 0 910.7 -- 75
2021-01-23 00:00:00 4 12 Sudoeste 22 Oeste 0 910.8 -- 67
2021-01-22 23:00:00 4.8 10 Oeste 26 Oeste 0 909.9 -- 64
2021-01-22 22:00:00 4.6 8 Oeste 15 Noroeste 0 909 -- 66
2021-01-22 21:00:00 4.2 2 Noroeste 14 Oeste 0 908.4 -- 68
2021-01-22 20:00:00 5 6 Noroeste 16 Noroeste 0 907.9 -- 65
2021-01-22 19:00:00 5.5 5 Norte 22 Noroeste 0 906.9 -- 64
2021-01-22 18:00:00 7.5 10 Noroeste 30 Noroeste 0 905.7 -- 56
2021-01-22 17:00:00 8.6 13 Oeste 25 Oeste 0 905.2 -- 58
2021-01-22 16:00:00 8.2 11 Oeste 40 Noroeste 0 904.8 -- 59
2021-01-22 15:00:00 8.9 14 Noroeste 50 Oeste 0 904.2 -- 59
2021-01-22 14:00:00 9.5 21 Noroeste 73 Oeste 0 903.3 -- 54
2021-01-22 13:00:00 9 21 Oeste 66 Oeste 0 902.9 -- 55
2021-01-22 12:00:00 8.8 29 Oeste 66 Sudoeste 0 902.4 -- 60
2021-01-22 11:00:00 7.8 22 Oeste 56 Oeste 0 902.2 -- 68
2021-01-22 10:00:00 7.1 26 Oeste 58 Oeste 0.2 902.1 -- 65
2021-01-22 09:00:00 4.9 14 Oeste 57 Oeste 1.8 902.2 -- 85
2021-01-22 08:00:00 9.2 14 Oeste 49 Sudoeste 0.4 900.6 -- 78
2021-01-22 07:00:00 9.7 29 Sudoeste 48 Sur 0 899.2 -- 78
2021-01-22 06:00:00 10.1 23 Sudoeste 46 Oeste 0 900.8 -- 71
2021-01-22 05:00:00 8.5 10 Sur 26 Sur 0 902.3 -- 83
2021-01-22 04:00:00 9.4 11 Sur 34 Sur 0 903.8 -- 80
2021-01-22 03:00:00 9.1 12 Sur 28 Sur 0 905.1 -- 82
2021-01-22 02:00:00 9.1 16 Sur 29 Sur 0 905.7 -- 82
2021-01-22 01:00:00 8.7 15 Sur 32 Sur 0 906.8 -- 82
2021-01-22 00:00:00 8.8 15 Sur 29 Sur 0 907.6 -- 82
2021-01-21 23:00:00 8.4 17 Sur 29 Sur 0 908.1 -- 83
2021-01-21 22:00:00 7.9 18 Sur 30 Sudoeste 0 908.3 -- 85
2021-01-21 21:00:00 7.8 11 Sudoeste 24 Sur 0 908.8 -- 83
2021-01-21 20:00:00 7.6 9 Sur 24 Sur 0 909.3 -- 85
2021-01-21 19:00:00 7.2 10 Sur 22 Sur 0 909.5 -- 87
2021-01-21 18:00:00 7.4 9 Sur 20 Sur 0 909.3 -- 84
2021-01-21 17:00:00 9.4 10 Sudoeste 22 Sur 0 909.6 -- 69
2021-01-21 16:00:00 9.5 6 Sudeste 21 Sur 0 909.6 -- 70
2021-01-21 15:00:00 9.2 17 Sur 36 Sudoeste 0 909.8 -- 73
2021-01-21 14:00:00 11.3 19 Sudoeste 44 Oeste 0 909.9 -- 57
2021-01-21 13:00:00 11.2 9 Sudoeste 32 Oeste 0 910.3 -- 59
2021-01-21 12:00:00 9.6 10 Sur 21 Sur 0 910.7 -- 69
2021-01-21 11:00:00 8.1 2 Sudeste 10 Sudeste 0 911 -- 76
2021-01-21 10:00:00 3.6 3 Nordeste 9 Nordeste 0 910.8 -- 94
2021-01-21 09:00:00 1.7 0 Calma 6 Noroeste 0 910.1 -- 96
2021-01-21 08:00:00 1.8 3 Nordeste 7 Nordeste 0 909.8 -- 96
2021-01-21 07:00:00 2.3 3 Oeste 9 Oeste 0 909.3 -- 96
2021-01-21 06:00:00 2.5 4 Norte 9 Nordeste 0 908.7 -- 95
2021-01-21 05:00:00 3.3 2 Norte 7 Norte 0 908.5 -- 93
2021-01-21 04:00:00 4 2 Sudeste 7 Sudeste 0 908.3 -- 91
2021-01-21 03:00:00 5.1 3 Este 15 Sur 0 908 -- 90
2021-01-21 02:00:00 5.2 8 Sur 22 Sur 0 907.7 -- 90
2021-01-21 01:00:00 5.6 13 Sur 27 Sudoeste 0 907.5 -- 90
2021-01-21 00:00:00 6.2 15 Sur 30 Sudoeste 0 907.4 -- 87
2021-01-20 23:00:00 5.9 10 Sur 30 Sur 0 907.2 -- 87
2021-01-20 22:00:00 5.7 12 Sur 22 Sur 0 -- -- 87
2021-01-20 21:00:00 5.3 9 Sur 24 Sudeste 0 907.1 -- 88
2021-01-20 20:00:00 4.5 12 Sur 23 Sur 0 907.1 -- 93
2021-01-20 19:00:00 4.6 17 Sur 31 Sur 0 906.6 -- 92
2021-01-20 18:00:00 5.2 11 Sur 28 Sur 0 906.6 -- 86
2021-01-20 17:00:00 5.4 18 Sur 30 Sur 0 906.7 -- 86
2021-01-20 16:00:00 5.9 9 Sudeste 28 Sur 0 906.4 -- 84
2021-01-20 15:00:00 6.4 12 Sur 32 Sur 0 907.7 -- 77
2021-01-20 14:00:00 5.9 14 Sur 34 Sudoeste 0 908.2 -- 77
2021-01-20 13:00:00 6.7 11 Sur 26 Sur 0 909.1 -- 71
2021-01-20 12:00:00 6.2 9 Sur 18 Sur 0 910.1 -- 69
2021-01-20 11:00:00 4.7 7 Sur 13 Sur 0 910.8 -- 74
2021-01-20 10:00:00 2 4 Nordeste 18 Sur 0 911.1 -- 78
2021-01-20 09:00:00 1.4 11 Sur 20 Sur 0 910.6 -- 81
2021-01-20 08:00:00 -1.2 14 Sur 21 Sur 0 910.7 -- 90
2021-01-20 07:00:00 -2.4 3 Sudeste 8 Este 0 911 -- 91
2021-01-20 06:00:00 -5.3 3 Este 9 Nordeste 0 911.6 -- 90
2021-01-20 05:00:00 -6.4 4 Este 8 Sudoeste 0 912 -- 92
2021-01-20 04:00:00 -6.4 2 Norte 6 Nordeste 0 913.2 -- 94
2021-01-20 03:00:00 -6.1 0 Calma 6 Nordeste 0 913.6 -- 91
2021-01-20 02:00:00 -5.5 2 Oeste 6 Sudoeste 0 914.2 -- 91
2021-01-20 01:00:00 -4.6 0 Calma 6 Nordeste 0 914.9 -- 91
2021-01-20 00:00:00 -3.9 3 Nordeste 7 Nordeste 0 915.7 -- 89
2021-01-19 23:00:00 -2.8 3 Oeste 6 Oeste 0 915.9 -- 87
2021-01-19 22:00:00 -1.8 4 Noroeste 7 Norte 0 916.6 -- 86
2021-01-19 21:00:00 -0.7 3 Norte 6 Norte 0 916.7 -- 81
2021-01-19 20:00:00 1.1 5 Nordeste 9 Norte 0 917.2 -- 76
2021-01-19 19:00:00 4 3 Este 15 Sur 0 916.8 -- 70
2021-01-19 18:00:00 7 7 Sur 22 Sur 0 916.6 -- 60
2021-01-19 17:00:00 8.1 3 Este 8 Sur 0 916.6 -- 57
2021-01-19 16:00:00 6.4 3 Este 6 Este 0 917.1 -- 60
2021-01-19 15:00:00 5.8 3 Nordeste 6 Este 0 917.6 -- 60
2021-01-19 14:00:00 4.3 2 Este 7 Este 0 918.6 -- 64
2021-01-19 13:00:00 1.9 3 Este 5 Nordeste 0 919.9 -- 70
2021-01-19 12:00:00 -1.1 2 Norte 5 Este 0 921 -- 79
2021-01-19 11:00:00 -4.7 0 Calma 5 Noroeste 0 921.7 -- 91
2021-01-19 10:00:00 -7 0 Calma 4 Nordeste 0 921.6 -- 94
2021-01-19 09:00:00 -8.8 0 Calma 5 Norte 0 921.5 -- 95
2021-01-19 08:00:00 -9.1 2 Norte 6 Norte 0 921.5 -- 93
2021-01-19 07:00:00 -7.9 2 Nordeste 4 Nordeste 0 921.6 -- 95
2021-01-19 06:00:00 -8.3 2 Norte 5 Norte 0 921.7 -- 96
2021-01-19 05:00:00 -8.3 0 Calma 4 Norte 0 921.7 -- 94
2021-01-19 04:00:00 -7.9 3 Noroeste 5 Noroeste 0 922.1 -- 95
2021-01-19 03:00:00 -7.1 2 Norte 8 Oeste 0 922.3 -- 91
2021-01-19 02:00:00 -6.6 3 Noroeste 7 Oeste 0 922.6 -- 92
2021-01-19 01:00:00 -5.7 2 Oeste 8 Oeste 0 922.9 -- 93
2021-01-19 00:00:00 -5.2 4 Norte 7 Norte 0 923 -- 91
2021-01-18 23:00:00 -4.2 2 Norte 8 Oeste 0 922.9 -- 90
2021-01-18 22:00:00 -2.8 4 Oeste 8 Norte 0 922.8 -- 92
2021-01-18 21:00:00 -2.1 4 Norte 6 Norte 0 922.7 -- 91
2021-01-18 20:00:00 0.2 3 Noroeste 7 Oeste 0 922.5 -- 89
2021-01-18 19:00:00 1.4 3 Noroeste 10 Norte 0 922 -- 87
2021-01-18 18:00:00 3.2 6 Norte 10 Norte 0 921.6 -- 80
2021-01-18 17:00:00 5.8 4 Noroeste 13 Noroeste 0 921.3 -- 71
2021-01-18 16:00:00 7.3 6 Noroeste 8 Noroeste 0 921.1 -- 66
2021-01-18 15:00:00 8.6 3 Norte 8 Norte 0 921.4 -- 61
2021-01-18 14:00:00 7.1 5 Norte 9 Norte 0 922.1 -- 66
2021-01-18 13:00:00 6.5 4 Norte 8 Norte 0 922.9 -- 68
2021-01-18 12:00:00 5 3 Norte 6 Norte 0 923.8 -- 70
2021-01-18 11:00:00 3.2 2 Noroeste 5 Oeste 0 924 -- 73
2021-01-18 10:00:00 0.3 0 Calma 6 Oeste 0 923.7 -- 84
2021-01-18 09:00:00 -1.4 4 Oeste 7 Oeste 0 923.5 -- 86
2021-01-18 08:00:00 -2.3 3 Oeste 5 Oeste 0 923.1 -- 86
2021-01-18 07:00:00 -2.9 3 Oeste 9 Oeste 0 922.7 -- 87
2021-01-18 06:00:00 -4.4 4 Oeste 7 Oeste 0 922.5 -- 90
2021-01-18 05:00:00 -5.5 2 Noroeste 7 Nordeste 0 922.6 -- 90
2021-01-18 04:00:00 -6 2 Noroeste 6 Nordeste 0 922.8 -- 88
2021-01-18 03:00:00 -5.6 3 Norte 6 Nordeste 0 923 -- 88
2021-01-18 02:00:00 -5.5 3 Nordeste 8 Nordeste 0 923.1 -- 89
2021-01-18 01:00:00 -4.7 3 Sudeste 7 Sudeste 0 923.2 -- 86
2021-01-18 00:00:00 -4 3 Noroeste 8 Noroeste 0 923.6 -- 83
2021-01-17 23:00:00 -3.6 5 Norte 8 Nordeste 0 923.5 -- 80
2021-01-17 22:00:00 -3.3 2 Oeste 9 Norte 0 923.5 -- 78
2021-01-17 21:00:00 -1.9 2 Sudoeste 9 Norte 0 923.2 -- 71
2021-01-17 20:00:00 -1.5 4 Norte 9 Nordeste 0 923.2 -- 69
2021-01-17 19:00:00 -0.6 4 Nordeste 8 Noroeste 0 923 -- 66
2021-01-17 18:00:00 2.5 8 Noroeste 12 Noroeste 0 922.4 -- 53
2021-01-17 17:00:00 5.4 6 Oeste 12 Oeste 0 922.2 -- 48
2021-01-17 16:00:00 5.3 4 Norte 11 Oeste 0 922.2 -- 48
2021-01-17 15:00:00 6.9 6 Sudoeste 11 Oeste 0 922.4 -- 39
2021-01-17 14:00:00 4 2 Nordeste 8 Norte 0 923.3 -- 49
2021-01-17 13:00:00 2 3 Nordeste 8 Norte 0 924.3 -- 52
2021-01-17 12:00:00 -0.9 2 Norte 6 Nordeste 0 925.1 -- 59
2021-01-17 11:00:00 -3.6 2 Nordeste 5 Norte 0 925.3 -- 64
2021-01-17 10:00:00 -8.6 3 Norte 8 Norte 0 924.8 -- 78
2021-01-17 09:00:00 -11.1 2 Norte 5 Oeste 0 924.5 -- 85
2021-01-17 08:00:00 -11 0 Calma 8 Nordeste 0 924.3 -- 82
2021-01-17 07:00:00 -10.4 5 Norte 6 Norte 0 924.3 -- 84
2021-01-17 06:00:00 -9.5 2 Noroeste 5 Noroeste 0 924.1 -- 86
2021-01-17 05:00:00 -8.5 3 Noroeste 7 Oeste 0 924 -- 84
2021-01-17 04:00:00 -8.5 2 Noroeste 7 Norte 0 924.2 -- 83
2021-01-17 03:00:00 -7.6 2 Norte 12 Noroeste 0 924.3 -- 85
2021-01-17 02:00:00 -7.7 4 Norte 8 Nordeste 0 924.6 -- 80
2021-01-17 01:00:00 -7.2 5 Norte 8 Nordeste 0 924.8 -- 79
2021-01-17 00:00:00 -7.1 5 Norte 8 Nordeste 0 924.9 -- 80
2021-01-16 23:00:00 -6 4 Oeste 12 Norte 0 924.5 -- 79
2021-01-16 22:00:00 -5 4 Norte 6 Nordeste 0 924.3 -- 76
2021-01-16 21:00:00 -3.8 3 Noroeste 6 Norte 0 924 -- 72
2021-01-16 20:00:00 -1.9 2 Sudeste 6 Oeste 0 923.9 -- 75
2021-01-16 19:00:00 -1 4 Noroeste 14 Noroeste 0 923.5 -- 70
2021-01-16 18:00:00 1.8 5 Norte 10 Oeste 0 923.1 -- 61
2021-01-16 17:00:00 4.2 4 Norte 8 Norte 0 922.5 -- 53
2021-01-16 16:00:00 5.9 4 Noroeste 12 Oeste 0 922.2 -- 48
2021-01-16 15:00:00 4.6 5 Noroeste 9 Noroeste 0 921.9 -- 56
2021-01-16 14:00:00 3.9 5 Norte 8 Noroeste 0 922.3 -- 56
2021-01-16 13:00:00 2.9 5 Noroeste 8 Norte 0 922.7 -- 60
2021-01-16 12:00:00 2.1 5 Norte 9 Oeste 0 923.3 -- 62
2021-01-16 11:00:00 1.3 3 Sudoeste 8 Oeste 0 923.3 -- 64
2021-01-16 10:00:00 -3.5 3 Oeste 8 Norte 0 922.5 -- 84
2021-01-16 09:00:00 -6.1 4 Oeste 11 Norte 0 921.7 -- 90
2021-01-16 08:00:00 -4.6 6 Oeste 12 Noroeste 0 921.7 -- 89
2021-01-16 07:00:00 -4.6 5 Norte 10 Noroeste 0 921.4 -- 88
2021-01-16 06:00:00 -2.2 6 Norte 14 Norte 0 920.4 -- 80
2021-01-16 05:00:00 -1.2 5 Norte 19 Norte 0 920.4 -- 81
2021-01-16 04:00:00 -0.5 9 Noroeste 22 Noroeste 0 920.2 -- 79
2021-01-16 03:00:00 -1.8 3 Noroeste 22 Noroeste 0 920 -- 84
2021-01-16 02:00:00 0.4 12 Norte 40 Noroeste 0 919.8 -- 79
2021-01-16 01:00:00 0.8 14 Noroeste 24 Noroeste 0 920 -- 78
2021-01-16 00:00:00 1.6 15 Noroeste 37 Noroeste 0 920.3 -- 75
2021-01-15 23:00:00 1.7 17 Norte 32 Noroeste 0 920.2 -- 79
2021-01-15 22:00:00 -0.1 10 Oeste 21 Oeste 0 920.2 -- 80
2021-01-15 21:00:00 1.3 11 Noroeste 19 Noroeste 0 920.4 -- 78
2021-01-15 20:00:00 1 9 Noroeste 24 Nordeste 0 920.7 -- 75
2021-01-15 19:00:00 1.6 8 Noroeste 15 Norte 0 920.4 -- 77
2021-01-15 18:00:00 3.1 6 Norte 14 Norte 0 920.2 -- 72
2021-01-15 17:00:00 4.2 5 Noroeste 19 Noroeste 0 920.2 -- 69
2021-01-15 16:00:00 4.9 6 Noroeste 18 Noroeste 0 920.5 -- 67
2021-01-15 15:00:00 5.5 6 Norte 21 Nordeste 0 920.6 -- 64
2021-01-15 14:00:00 4.8 10 Nordeste 32 Norte 0 921.4 -- 66
2021-01-15 13:00:00 4.2 13 Noroeste 30 Norte 0 922 -- 68
2021-01-15 12:00:00 1.4 8 Oeste 19 Oeste 0 922.6 -- 82
2021-01-15 11:00:00 -1.1 9 Oeste 16 Oeste 0 922.8 -- 94
2021-01-15 10:00:00 -1.7 4 Oeste 9 Oeste 0 922.6 -- 95
2021-01-15 09:00:00 -3.4 3 Sudeste 9 Oeste 0 922.1 -- 96
2021-01-15 08:00:00 -4.3 4 Noroeste 9 Oeste 0 -- -- 96
2021-01-15 07:00:00 -4.7 4 Oeste 9 Oeste 0 921.5 -- 95
2021-01-15 06:00:00 -3.7 4 Norte 12 Norte 0 921.2 -- 95
2021-01-15 05:00:00 -2.7 4 Nordeste 12 Norte 0 921.2 -- 92
2021-01-15 04:00:00 -1.5 8 Norte 15 Norte 0 921.1 -- 95
2021-01-15 03:00:00 -1 2 Este 19 Noroeste 0 921 -- 89
2021-01-15 02:00:00 0.5 8 Oeste 21 Norte 0 920.9 -- 86
2021-01-15 01:00:00 -0.2 5 Sur 15 Noroeste 0 921.2 -- 92
2021-01-15 00:00:00 -1.9 6 Este 12 Este 0 921.4 -- 83
2021-01-14 23:00:00 -2.4 3 Nordeste 5 Nordeste 0 921.7 -- 83
2021-01-14 22:00:00 -3.5 3 Este 5 Este 0 921.6 -- 82
2021-01-14 21:00:00 -4.8 4 Norte 7 Noroeste 0 921.6 -- 83
2021-01-14 20:00:00 -4.8 3 Norte 10 Norte 0 921.4 -- 76
2021-01-14 19:00:00 -4.3 4 Noroeste 8 Noroeste 0 921.3 -- 75
2021-01-14 18:00:00 -3.5 4 Norte 9 Norte 0 920.6 -- 73
2021-01-14 17:00:00 0.4 5 Oeste 9 Sudoeste 0 920.4 -- 62
2021-01-14 16:00:00 0.5 4 Oeste 8 Norte 0 920.6 -- 64
2021-01-14 15:00:00 0.6 3 Nordeste 8 Norte 0 920.8 -- 62
2021-01-14 14:00:00 -2.3 5 Noroeste 9 Noroeste 0 921.1 -- 66
2021-01-14 13:00:00 -4 4 Norte 8 Noroeste 0 921.8 -- 71
2021-01-14 12:00:00 -7.3 3 Norte 7 Norte 0 922.7 -- 76
2021-01-14 11:00:00 -10 4 Norte 8 Norte 0 923.1 -- 80
2021-01-14 10:00:00 -14.1 3 Noroeste 6 Noroeste 0 923 -- 85
2021-01-14 09:00:00 -16.3 3 Nordeste 8 Norte 0 922.5 -- 87
2021-01-14 08:00:00 -16 2 Norte 9 Norte 0 922.3 -- 86
2021-01-14 07:00:00 -15.2 4 Norte 7 Norte 0 922.4 -- 85
2021-01-14 06:00:00 -14.6 3 Norte 6 Oeste 0 922.3 -- 87
2021-01-14 05:00:00 -13.9 0 Calma 7 Noroeste 0 922.4 -- 86
2021-01-14 04:00:00 -13.3 4 Norte 8 Norte 0 922.9 -- 88
2021-01-14 03:00:00 -12.1 4 Oeste 8 Nordeste 0 923.4 -- 88
2021-01-14 02:00:00 -11.7 4 Norte 7 Norte 0 923.4 -- 88
2021-01-14 01:00:00 -10.8 3 Norte 5 Norte 0 923.6 -- 88
2021-01-14 00:00:00 -10.2 3 Oeste 5 Oeste 0 924 -- 90
2021-01-13 23:00:00 -9.7 4 Noroeste 9 Norte 0 924 -- 86
2021-01-13 22:00:00 -8.7 3 Nordeste 7 Norte 0 923.8 -- 90
2021-01-13 21:00:00 -8.2 2 Norte 11 Noroeste 0 923.7 -- 88
2021-01-13 20:00:00 -6.6 5 Norte 9 Norte 0 923.5 -- 87
2021-01-13 19:00:00 -4.6 2 Norte 12 Norte 0 923.1 -- 83
2021-01-13 18:00:00 -2.5 5 Norte 9 Norte 0 923.1 -- 78
2021-01-13 17:00:00 0.3 5 Norte 9 Norte 0 923.1 -- 70
2021-01-13 16:00:00 0.7 5 Norte 9 Norte 0 923.1 -- 68
2021-01-13 15:00:00 1 5 Norte 10 Norte 0 923.1 -- 66
2021-01-13 14:00:00 2.1 4 Sudoeste 8 Sudeste 0 923.6 -- 59
2021-01-13 13:00:00 -1.5 0 Calma 6 Norte 0 924.4 -- 67
2021-01-13 12:00:00 -3.8 0 Calma 5 Nordeste 0 925.1 -- 67
2021-01-13 11:00:00 -8.1 4 Noroeste 7 Oeste 0 925.6 -- 76
2021-01-13 10:00:00 -12.5 3 Noroeste 7 Norte 0 925.4 -- 86
2021-01-13 09:00:00 -15.1 2 Nordeste 9 Norte 0 924.8 -- 85
2021-01-13 08:00:00 -15 3 Norte 6 Norte 0 924.3 -- 86
2021-01-13 07:00:00 -15 2 Noroeste 6 Noroeste 0 924.1 -- 87
2021-01-13 06:00:00 -15.2 0 Calma 5 Noroeste 0 923.8 -- 84
2021-01-13 05:00:00 -15.1 3 Noroeste 5 Noroeste 0 924 -- 86
2021-01-13 04:00:00 -14.6 3 Norte 6 Norte 0 924.2 -- 86
2021-01-13 03:00:00 -14.2 3 Oeste 8 Norte 0 924.5 -- 86
2021-01-13 02:00:00 -13.8 4 Noroeste 8 Noroeste 0 924.1 -- 89
2021-01-13 01:00:00 -14.2 4 Noroeste 8 Noroeste 0 924.5 -- 86
2021-01-13 00:00:00 -14 3 Norte 6 Norte 0 924.6 -- 85
2021-01-12 23:00:00 -13.8 4 Norte 10 Norte 0 924.3 -- 83
2021-01-12 22:00:00 -13.1 2 Norte 8 Norte 0 924.1 -- 84
2021-01-12 21:00:00 -12.5 4 Norte 7 Norte 0 923.8 -- 81
2021-01-12 20:00:00 -11 4 Norte 8 Norte 0 923.5 -- 80
2021-01-12 19:00:00 -9.2 5 Norte 11 Norte 0 923.1 -- 74
2021-01-12 18:00:00 -6.9 3 Norte 7 Norte 0 922.6 -- 70
2021-01-12 17:00:00 -3.9 4 Norte 8 Nordeste 0 922.3 -- 63
2021-01-12 16:00:00 -2.8 4 Norte 6 Norte 0 922 -- 56
2021-01-12 15:00:00 -2.6 3 Norte 8 Sudoeste 0 921.9 -- 56
2021-01-12 14:00:00 -4.2 4 Oeste 9 Oeste 0 922.5 -- 58
2021-01-12 13:00:00 -7.4 0 Calma 8 Noroeste 0 923.3 -- 67
2021-01-12 12:00:00 -11.1 5 Noroeste 9 Norte 0 923.9 -- 72
2021-01-12 11:00:00 -13.1 4 Norte 7 Norte 0 924.1 -- 77
2021-01-12 10:00:00 -17.5 3 Noroeste 6 Noroeste 0 923.8 -- 86
2021-01-12 09:00:00 -20.7 0 Calma 5 Norte 0 923.2 -- 83
2021-01-12 08:00:00 -20.8 3 Noroeste 5 Oeste 0 922.7 -- 82
2021-01-12 07:00:00 -20.8 2 Norte 4 Nordeste 0 922.3 -- 81
2021-01-12 06:00:00 -20.4 0 Calma 6 Oeste 0 921.7 -- 83
2021-01-12 05:00:00 -19.3 2 Noroeste 7 Oeste 0 921.5 -- 81
2021-01-12 04:00:00 -18.6 4 Noroeste 7 Noroeste 0 921.5 -- 86
2021-01-12 03:00:00 -18.1 2 Oeste 5 Noroeste 0 921.5 -- 85
2021-01-12 02:00:00 -17.5 2 Noroeste 5 Oeste 0 921.3 -- 85
2021-01-12 01:00:00 -17.4 3 Norte 8 Noroeste 0 921.1 -- 83
2021-01-12 00:00:00 -16.1 4 Noroeste 8 Norte 0 921 -- 85
2021-01-11 23:00:00 -14.9 2 Norte 10 Norte 0 920.3 -- 84
2021-01-11 22:00:00 -13.8 5 Norte 10 Norte 0 919.7 -- 83
2021-01-11 21:00:00 -12.5 2 Nordeste 7 Noroeste 0 919.3 -- 83
2021-01-11 20:00:00 -10.7 3 Nordeste 7 Noroeste 0 918.5 -- 83
2021-01-11 19:00:00 -8.5 4 Norte 9 Norte 0 917.8 -- 78
2021-01-11 18:00:00 -5.9 4 Norte 14 Noroeste 0 917.2 -- 72
2021-01-11 17:00:00 -2.7 7 Noroeste 13 Noroeste 0 916.7 -- 64
2021-01-11 16:00:00 -1.2 7 Noroeste 13 Noroeste 0 916.2 -- 61
2021-01-11 15:00:00 -0.2 6 Noroeste 14 Noroeste 0 915.7 -- 57
2021-01-11 14:00:00 -1.6 6 Norte 12 Norte 0 915.6 -- 64
2021-01-11 13:00:00 -2.6 7 Nordeste 13 Norte 0 916.1 -- 71
2021-01-11 12:00:00 -3.6 5 Noroeste 10 Noroeste 0 916.6 -- 76
2021-01-11 11:00:00 -4.5 5 Noroeste 12 Oeste 0 916.4 -- 85
2021-01-11 10:00:00 -4.9 6 Norte 17 Norte 0 915.4 -- 87
2021-01-11 09:00:00 -6.4 6 Noroeste 14 Norte 0 914.3 -- 96
2021-01-11 08:00:00 -5.7 5 Nordeste 13 Noroeste 0 913.6 -- 89
2021-01-11 07:00:00 -2.7 8 Noroeste 15 Noroeste 0 913.1 -- 87
2021-01-11 06:00:00 -2.5 8 Noroeste 14 Noroeste 0 912.8 -- 91
2021-01-11 05:00:00 -2.3 5 Noroeste 14 Noroeste 0 912.6 -- 89
2021-01-11 04:00:00 -2.2 9 Noroeste 15 Noroeste 0 912.5 -- 88
2021-01-11 03:00:00 -2 4 Oeste 9 Noroeste 0 912.4 -- 88
2021-01-11 02:00:00 -2 6 Noroeste 12 Noroeste 0 912.3 -- 88
2021-01-11 01:00:00 -2.1 6 Oeste 15 Noroeste 0 912.2 -- 88
2021-01-11 00:00:00 -2 6 Norte 18 Noroeste 0 912 -- 82
2021-01-10 23:00:00 -2.6 8 Noroeste 18 Noroeste 0 911.9 -- 88
2021-01-10 22:00:00 -1.7 6 Oeste 13 Oeste 0 911.4 -- 88
2021-01-10 21:00:00 -1 6 Oeste 14 Oeste 0 911 -- 87
2021-01-10 20:00:00 -0.6 7 Noroeste 16 Noroeste 0 910.4 -- 87
2021-01-10 19:00:00 -0.4 10 Noroeste 19 Noroeste 0 909.9 -- 88
2021-01-10 18:00:00 -0.3 10 Noroeste 20 Noroeste 0 909.3 -- 87
2021-01-10 17:00:00 0.1 10 Noroeste 19 Noroeste 0 908.7 -- 86
2021-01-10 16:00:00 0.5 9 Noroeste 24 Noroeste 0 908.1 -- 85
2021-01-10 15:00:00 0.8 11 Noroeste 22 Noroeste 0 907.6 -- 83
2021-01-10 14:00:00 1.9 5 Noroeste 17 Noroeste 0 907.5 -- 80
2021-01-10 13:00:00 1 4 Nordeste 17 Norte 0 907.7 -- 83
2021-01-10 12:00:00 0.6 3 Norte 8 Oeste 0 907.9 -- 83
2021-01-10 11:00:00 -0.1 2 Sudeste 5 Nordeste 0 907.6 -- 83
2021-01-10 10:00:00 -1.1 3 Norte 4 Nordeste 0 906.6 -- 89
2021-01-10 09:00:00 -2 2 Sur 3 Sur 0 906 -- 92
2021-01-10 08:00:00 -2.6 0 Calma 5 Norte 0 905.2 -- 93
2021-01-10 07:00:00 -2.8 0 Calma 3 Nordeste 0 904.6 -- 92
2021-01-10 06:00:00 -3 3 Norte 4 Noroeste 0 904.1 -- 92
2021-01-10 05:00:00 -2.8 2 Oeste 3 Sudoeste 0.2 904 -- 93
2021-01-10 04:00:00 -2.9 0 Calma 4 Nordeste 0 904.2 -- 92
2021-01-10 03:00:00 -3.1 2 Nordeste 5 Oeste 0 904.2 -- 93
2021-01-10 02:00:00 -3.6 4 Oeste 5 Oeste 0 904.1 -- 94
2021-01-10 01:00:00 -4 2 Oeste 5 Sudoeste 0 904.2 -- 93
2021-01-10 00:00:00 -4 2 Noroeste 10 Oeste 0 904.2 -- 90
2021-01-09 23:00:00 -3.5 6 Oeste 12 Oeste 0 904 -- 90
2021-01-09 22:00:00 -2.5 3 Oeste 5 Oeste 0 903.9 -- 89
2021-01-09 21:00:00 -2.3 3 Oeste 6 Oeste 0 903.6 -- 91
2021-01-09 20:00:00 -2.4 3 Oeste 9 Oeste 0 902.9 -- 93
2021-01-09 19:00:00 -2.5 5 Oeste 8 Oeste 0.4 902.4 -- 94
2021-01-09 18:00:00 -2.1 4 Noroeste 11 Noroeste 0.8 901.8 -- 92
2021-01-09 17:00:00 -1.8 5 Oeste 12 Noroeste 0.6 901.3 -- 91
2021-01-09 16:00:00 -1.7 6 Noroeste 15 Noroeste 1 900.6 -- 90
2021-01-09 15:00:00 -1.4 7 Oeste 17 Noroeste 0.8 900.1 -- 91
2021-01-09 14:00:00 -1.4 10 Noroeste 18 Noroeste 0 899.8 -- 89
2021-01-09 13:00:00 -1.5 9 Noroeste 20 Noroeste 1 900.3 -- 89
2021-01-09 12:00:00 -1.1 8 Noroeste 16 Noroeste 1 901.1 -- 89
2021-01-09 11:00:00 -0.9 3 Oeste 11 Noroeste 2 901.4 -- 90
2021-01-09 10:00:00 -1.6 0 Calma 8 Nordeste 1 901.3 -- 93
2021-01-09 09:00:00 -2.1 3 Noroeste 12 Norte 0.2 900.8 -- 93
2021-01-09 08:00:00 -2.4 5 Norte 14 Nordeste 0 900.6 -- 94
2021-01-09 07:00:00 -2.6 5 Nordeste 21 Nordeste 1 900.5 -- 96
2021-01-09 06:00:00 -2.7 8 Nordeste 21 Nordeste 1.2 900.6 -- 95
2021-01-09 05:00:00 -2.7 12 Nordeste 22 Norte 1.6 900.8 -- 96
2021-01-09 04:00:00 -2.3 9 Nordeste 19 Norte 3 901.4 -- 95
2021-01-09 03:00:00 -1.8 4 Norte 13 Nordeste 2.2 901.8 -- 95
2021-01-09 02:00:00 -1.3 3 Norte 6 Norte 1.4 901.7 -- 94
2021-01-09 01:00:00 -1.2 3 Oeste 8 Oeste 0.6 902 -- 95
2021-01-09 00:00:00 -1.4 5 Noroeste 10 Oeste 0.8 902.4 -- 95
2021-01-08 23:00:00 -1.8 6 Oeste 10 Oeste 0.8 903.4 -- 96
2021-01-08 22:00:00 -1.8 6 Oeste 10 Oeste 1.6 903.6 -- 95
2021-01-08 21:00:00 -1.6 4 Oeste 8 Oeste 1.2 903.9 -- 94
2021-01-08 20:00:00 -1.6 0 Calma 10 Oeste 0.6 904 -- 93
2021-01-08 19:00:00 -1.7 5 Oeste 10 Oeste 1.2 904.1 -- 95
2021-01-08 18:00:00 -1.8 5 Oeste 13 Oeste 0.6 904.4 -- 95
2021-01-08 17:00:00 -1.4 6 Oeste 17 Noroeste 1 904.7 -- 93
2021-01-08 16:00:00 -1.2 9 Noroeste 18 Oeste 0.8 904.6 -- 90
2021-01-08 15:00:00 -0.7 9 Noroeste 16 Noroeste 0.2 904.6 -- 86
2021-01-08 14:00:00 -0.6 9 Noroeste 15 Noroeste 0.2 905.1 -- 86
2021-01-08 13:00:00 -0.7 6 Noroeste 13 Noroeste 0.6 906.1 -- 86
2021-01-08 12:00:00 -1.1 5 Noroeste 12 Noroeste 0.6 907.4 -- 88
2021-01-08 11:00:00 -2 6 Oeste 12 Noroeste 0.4 908.1 -- 90
2021-01-08 10:00:00 -2.1 5 Noroeste 9 Noroeste 0.2 907.6 -- 87
2021-01-08 09:00:00 -2.7 4 Oeste 6 Sudoeste 0 907.2 -- 88
2021-01-08 08:00:00 -2.6 4 Oeste 7 Oeste 0 907 -- 88
2021-01-08 07:00:00 -2.5 5 Noroeste 11 Norte 0 907 -- 88
2021-01-08 06:00:00 -2.2 6 Noroeste 13 Noroeste 0 906.8 -- 87
2021-01-08 05:00:00 -2.1 8 Noroeste 14 Noroeste 0 907.2 -- 87
2021-01-08 04:00:00 -1.9 6 Noroeste 14 Noroeste 0 907.6 -- 87
2021-01-08 03:00:00 -1.7 5 Noroeste 13 Noroeste 0 907.6 -- 87
2021-01-08 02:00:00 -1.8 6 Noroeste 14 Noroeste 0 907.6 -- 89
2021-01-08 01:00:00 -1.8 8 Noroeste 15 Oeste 0 907.8 -- 89
2021-01-08 00:00:00 -1.7 7 Noroeste 14 Noroeste 0 908.2 -- 90
2021-01-07 23:00:00 -1.6 6 Noroeste 13 Noroeste 0 908.3 -- 90
2021-01-07 22:00:00 -1.6 7 Noroeste 12 Noroeste 0 908.4 -- 91
2021-01-07 21:00:00 -1.4 4 Oeste 9 Noroeste 0.4 908.8 -- 93
2021-01-07 20:00:00 -1.3 3 Noroeste 10 Noroeste 0.4 908.5 -- 92
2021-01-07 19:00:00 -1.4 6 Noroeste 17 Noroeste 0.8 908.4 -- 93
2021-01-07 18:00:00 -1.3 8 Noroeste 16 Oeste 0.2 908.1 -- 93
2021-01-07 17:00:00 -1.1 7 Noroeste 15 Noroeste 0.8 907.3 -- 92
2021-01-07 16:00:00 -0.8 5 Noroeste 14 Noroeste 0.4 906.9 -- 92
2021-01-07 15:00:00 -0.9 9 Noroeste 22 Noroeste 0.6 906.6 -- 91
2021-01-07 14:00:00 -0.4 5 Oeste 16 Noroeste 0 906.7 -- 88
2021-01-07 13:00:00 -0.3 5 Noroeste 15 Noroeste 0 906.9 -- 85
2021-01-07 12:00:00 0.1 5 Noroeste 18 Noroeste 0 908 -- 79
2021-01-07 11:00:00 -0.2 11 Noroeste 20 Noroeste 0 908.7 -- 77
2021-01-07 10:00:00 -0.7 0 Calma 7 Oeste 0 908 -- 81
2021-01-07 09:00:00 -1.4 3 Norte 7 Noroeste 0 907.5 -- 82
2021-01-07 08:00:00 -1.7 0 Calma 7 Noroeste 0 907.3 -- 82
2021-01-07 07:00:00 -1.9 6 Oeste 10 Oeste 0 907 -- 83
2021-01-07 06:00:00 -1.9 6 Oeste 10 Oeste 0 906.8 -- 84
2021-01-07 05:00:00 -1.7 5 Oeste 11 Noroeste 0 907.2 -- 82
2021-01-07 04:00:00 -1.6 4 Oeste 6 Noroeste 0 907.7 -- 81
2021-01-07 03:00:00 -1.8 3 Oeste 7 Norte 0 907.9 -- 84
2021-01-07 02:00:00 -1.7 3 Norte 8 Noroeste 0 908.3 -- 79
2021-01-07 01:00:00 -1.9 3 Norte 6 Norte 0 908.6 -- 83
2021-01-07 00:00:00 -1.9 3 Norte 7 Oeste 0 908.6 -- 79
2021-01-06 23:00:00 -1.7 3 Noroeste 7 Noroeste 0 909.1 -- 78
2021-01-06 22:00:00 -1.6 3 Norte 6 Norte 0 909.5 -- 78
2021-01-06 21:00:00 -1.2 5 Oeste 8 Oeste 0 909.7 -- 76
2021-01-06 20:00:00 -1.5 6 Oeste 8 Oeste 0 909.4 -- 75
2021-01-06 19:00:00 0 4 Noroeste 10 Norte 0 909 -- 69
2021-01-06 18:00:00 1.8 2 Nordeste 8 Noroeste 0 908.4 -- 61
2021-01-06 17:00:00 4 5 Norte 12 Norte 0 908.2 -- 51
2021-01-06 16:00:00 4.6 6 Norte 15 Nordeste 0 908.1 -- 49
2021-01-06 15:00:00 4.3 6 Nordeste 12 Norte 0 908.1 -- 50
2021-01-06 14:00:00 3.8 5 Norte 9 Norte 0 908.3 -- 56
2021-01-06 13:00:00 2.5 3 Oeste 9 Noroeste 0 908.9 -- 63
2021-01-06 12:00:00 -0.8 4 Noroeste 9 Noroeste 0 909.6 -- 72
2021-01-06 11:00:00 -2.8 4 Nordeste 8 Norte 0 910 -- 79
2021-01-06 10:00:00 -6.5 2 Este 4 Este 0 909.8 -- 91
2021-01-06 09:00:00 -8.6 2 Norte 5 Oeste 0 909.3 -- 89
2021-01-06 08:00:00 -8.2 3 Noroeste 5 Oeste 0 908.5 -- 89
2021-01-06 07:00:00 -7.9 3 Oeste 5 Oeste 0 908 -- 89
2021-01-06 06:00:00 -7.5 3 Oeste 4 Oeste 0 907.8 -- 88
2021-01-06 05:00:00 -7.1 4 Oeste 6 Oeste 0 907.8 -- 88
2021-01-06 04:00:00 -6.4 3 Noroeste 5 Oeste 0 908 -- 88
2021-01-06 03:00:00 -5.7 4 Oeste 10 Oeste 0 907.7 -- 86
2021-01-06 02:00:00 -4.6 7 Oeste 9 Oeste 0 907.4 -- 86
2021-01-06 01:00:00 -3.3 0 Calma 7 Oeste 0 907.7 -- 86
2021-01-06 00:00:00 -3.2 2 Noroeste 7 Sur 0 907.6 -- 89
2021-01-05 23:00:00 -3.2 4 Oeste 8 Noroeste 0 907.5 -- 86
2021-01-05 22:00:00 -3.3 2 Noroeste 6 Noroeste 0 907.3 -- 85
2021-01-05 21:00:00 -3 0 Calma 4 Norte 0 907.1 -- 84
2021-01-05 20:00:00 -2.1 0 Calma 6 Noroeste 0 907 -- 81
2021-01-05 19:00:00 -0.6 0 Calma 3 Noroeste 0 906.5 -- 77
2021-01-05 18:00:00 1.3 0 Calma 11 Noroeste 0 906.1 -- 66
2021-01-05 17:00:00 2.7 5 Norte 15 Norte 0 906 -- 60
2021-01-05 16:00:00 3.7 8 Nordeste 15 Noroeste 0 905.7 -- 57
2021-01-05 15:00:00 3.5 7 Norte 19 Nordeste 0 905.7 -- 59
2021-01-05 14:00:00 3.7 8 Norte 15 Norte 0 905.9 -- 58
2021-01-05 13:00:00 1.7 6 Noroeste 12 Noroeste 0 906.6 -- 66
2021-01-05 12:00:00 0.6 6 Sudoeste 10 Sudoeste 0 907.5 -- 69
2021-01-05 11:00:00 -2.2 0 Calma 6 Este 0 907.8 -- 77
2021-01-05 10:00:00 -6.3 0 Calma 6 Noroeste 0 907.6 -- 91
2021-01-05 09:00:00 -8.3 2 Nordeste 4 Este 0 907.4 -- 90
2021-01-05 08:00:00 -8.6 3 Oeste 8 Oeste 0 906.8 -- 88
2021-01-05 07:00:00 -8.5 3 Norte 5 Norte 0 906.5 -- 88
2021-01-05 06:00:00 -7.5 0 Calma 5 Norte 0 906.2 -- 88
2021-01-05 05:00:00 -7 2 Norte 6 Norte 0 906.2 -- 87
2021-01-05 04:00:00 -6.2 2 Nordeste 5 Norte 0 906.5 -- 90
2021-01-05 03:00:00 -5.3 3 Oeste 5 Nordeste 0 906.1 -- 90
2021-01-05 02:00:00 -3.8 3 Oeste 6 Norte 0 906 -- 91
2021-01-05 01:00:00 -3 4 Oeste 8 Norte 0 906.2 -- 90
2021-01-05 00:00:00 -2.1 0 Calma 6 Norte 0 906.3 -- 90
2021-01-04 23:00:00 -1.8 0 Calma 5 Oeste 0 906.2 -- 90
2021-01-04 22:00:00 -1.5 3 Sudoeste 6 Nordeste 0 906 -- 91
2021-01-04 21:00:00 -0.5 2 Nordeste 15 Noroeste 0.2 905.8 -- 88
2021-01-04 20:00:00 -0.1 2 Noroeste 5 Oeste 0 905.5 -- 72
2021-01-04 19:00:00 0.1 2 Sudeste 6 Sudoeste 0 905.1 -- 63
2021-01-04 18:00:00 2.2 2 Sudoeste 16 Oeste 0 904.8 -- 56
2021-01-04 17:00:00 3.2 13 Oeste 28 Oeste 0 904.7 -- 48
2021-01-04 16:00:00 3.9 12 Noroeste 24 Noroeste 0 904.6 -- 50
2021-01-04 15:00:00 3.4 9 Noroeste 22 Noroeste 0 904.4 -- 51
2021-01-04 14:00:00 4.2 10 Noroeste 21 Oeste 0 904.4 -- 48
2021-01-04 13:00:00 3.8 8 Noroeste 15 Noroeste 0 905.2 -- 60
2021-01-04 12:00:00 3 4 Sudeste 8 Sudoeste 0 906.1 -- 67
2021-01-04 11:00:00 0.1 2 Sudeste 5 Sudoeste 0 906.7 -- 83
2021-01-04 10:00:00 -2.5 2 Oeste 7 Oeste 0 906.7 -- 91
2021-01-04 09:00:00 -3.5 3 Oeste 8 Oeste 0 906.4 -- 92
2021-01-04 08:00:00 -3.5 5 Oeste 9 Sudoeste 0 906.5 -- 92
2021-01-04 07:00:00 -2.9 3 Oeste 5 Este 0.4 906.3 -- 93
2021-01-04 06:00:00 -3.1 2 Noroeste 6 Noroeste 0 906.3 -- 90
2021-01-04 05:00:00 -4.3 4 Nordeste 10 Oeste 0 906.5 -- 92
2021-01-04 04:00:00 -4 4 Este 6 Sur 0 906.7 -- 90
2021-01-04 03:00:00 -4.1 3 Este 8 Oeste 0 906.9 -- 89
2021-01-04 02:00:00 -4 6 Norte 14 Norte 0 907.2 -- 90
2021-01-04 01:00:00 -4.2 5 Norte 9 Oeste 0 907.4 -- 89
2021-01-04 00:00:00 -3.4 5 Oeste 8 Oeste 0 907.9 -- 87
2021-01-03 23:00:00 -2.1 3 Noroeste 6 Este 0 908.2 -- 84
2021-01-03 22:00:00 -1.4 2 Este 5 Sudoeste 0 908.3 -- 81
2021-01-03 21:00:00 -0.4 4 Norte 7 Noroeste 0 908.2 -- 77
2021-01-03 20:00:00 1.2 3 Norte 6 Norte 0 908 -- 68
2021-01-03 19:00:00 2.4 2 Oeste 10 Norte 0 908 -- 63
2021-01-03 18:00:00 3.3 5 Noroeste 17 Noroeste 0 907.9 -- 57
2021-01-03 17:00:00 4.7 10 Noroeste 31 Norte 0 907.7 -- 52
2021-01-03 16:00:00 5.1 16 Noroeste 39 Noroeste 0 907.4 -- 51
2021-01-03 15:00:00 5.2 17 Noroeste 39 Noroeste 0 907.5 -- 52
2021-01-03 14:00:00 3.2 13 Norte 31 Noroeste 0 907.7 -- 62
2021-01-03 13:00:00 3.6 9 Norte 22 Norte 0 908.3 -- 58
2021-01-03 12:00:00 1.6 6 Noroeste 15 Noroeste 0 909 -- 66
2021-01-03 11:00:00 1.2 3 Este 9 Este 0 909 -- 67
2021-01-03 10:00:00 -2.8 3 Sudoeste 6 Sudoeste 0 908.9 -- 84
2021-01-03 09:00:00 -4.1 4 Oeste 12 Noroeste 0 908.5 -- 82
2021-01-03 08:00:00 -4.9 6 Oeste 11 Norte 0 908.3 -- 85
2021-01-03 07:00:00 -4.5 6 Norte 10 Norte 0 908.2 -- 78
2021-01-03 06:00:00 -5.7 3 Norte 10 Norte 0 908.1 -- 81
2021-01-03 05:00:00 -5 6 Norte 12 Nordeste 0 908 -- 78
2021-01-03 04:00:00 -4 6 Norte 14 Norte 0 908.3 -- 74
2021-01-03 03:00:00 -3.5 4 Norte 13 Norte 0 908.2 -- 75
2021-01-03 02:00:00 -2.9 8 Nordeste 25 Norte 0 908 -- 74
2021-01-03 01:00:00 -1.8 5 Norte 15 Norte 0 908.1 -- 72
2021-01-03 00:00:00 -1 5 Norte 19 Norte 0 908.4 -- 73
2021-01-02 23:00:00 -1.3 4 Norte 13 Norte 0 907.9 -- 75
2021-01-02 22:00:00 -1.4 5 Norte 19 Nordeste 0 907.8 -- 76
2021-01-02 21:00:00 -1 9 Norte 19 Norte 0 907.8 -- 75
2021-01-02 20:00:00 -0.9 7 Norte 17 Norte 0 907.3 -- 73
2021-01-02 19:00:00 -1.1 7 Norte 22 Noroeste 0 907 -- 72
2021-01-02 18:00:00 -0.1 8 Norte 30 Norte 0 906.5 -- 66
2021-01-02 17:00:00 1.3 12 Noroeste 40 Noroeste 0 905.9 -- 62
2021-01-02 16:00:00 1.9 17 Noroeste 40 Noroeste 0 905.1 -- 63
2021-01-02 15:00:00 0.7 15 Noroeste 47 Noroeste 0 904.9 -- 71
2021-01-02 14:00:00 0.5 17 Noroeste 35 Norte 0 904.6 -- 78